createdAt,value
2019-03-11T00:00:03.598Z,0.00
2019-03-11T00:01:03.595Z,0.00
2019-03-11T00:02:03.662Z,0.00
2019-03-11T00:03:03.595Z,0.00
2019-03-11T00:04:03.602Z,0.00
2019-03-11T00:05:03.640Z,0.00
2019-03-11T00:06:03.653Z,0.00
2019-03-11T00:07:03.622Z,0.00
2019-03-11T00:08:03.608Z,0.00
2019-03-11T00:09:03.637Z,0.00
2019-03-11T00:10:03.651Z,0.00
2019-03-11T00:11:03.644Z,0.00
2019-03-11T00:12:03.683Z,0.00
2019-03-11T00:13:03.626Z,0.00
2019-03-11T00:14:03.815Z,0.00
2019-03-11T00:15:03.630Z,0.00
2019-03-11T00:16:03.697Z,0.00
2019-03-11T00:17:03.648Z,0.00
2019-03-11T00:18:03.659Z,0.00
2019-03-11T00:19:03.649Z,0.00
2019-03-11T00:20:03.659Z,0.00
2019-03-11T00:21:03.665Z,0.00
2019-03-11T00:22:03.740Z,0.00
2019-03-11T00:23:03.696Z,0.00
2019-03-11T00:24:03.670Z,0.00
2019-03-11T00:25:03.688Z,0.00
2019-03-11T00:26:03.664Z,0.00
2019-03-11T00:27:03.673Z,0.00
2019-03-11T00:28:03.693Z,0.00
2019-03-11T00:29:03.694Z,0.00
2019-03-11T00:30:03.697Z,0.00
2019-03-11T00:31:03.725Z,0.00
2019-03-11T00:32:03.692Z,0.00
2019-03-11T00:33:03.697Z,0.00
2019-03-11T00:34:03.716Z,0.00
2019-03-11T00:35:03.759Z,0.00
2019-03-11T00:36:03.756Z,0.00
2019-03-11T00:37:03.725Z,0.00
2019-03-11T00:38:03.759Z,0.00
2019-03-11T00:39:03.746Z,0.00
2019-03-11T00:40:03.709Z,0.00
2019-03-11T00:41:03.729Z,0.00
2019-03-11T00:42:03.736Z,0.00
2019-03-11T00:43:03.763Z,0.00
2019-03-11T00:44:03.737Z,0.00
2019-03-11T00:45:03.739Z,0.00
2019-03-11T00:46:03.734Z,0.00
2019-03-11T00:47:03.767Z,0.00
2019-03-11T00:48:03.841Z,0.00
2019-03-11T00:49:03.791Z,0.00
2019-03-11T00:50:03.762Z,0.00
2019-03-11T00:51:03.779Z,0.00
2019-03-11T00:52:03.756Z,0.00
2019-03-11T00:53:03.746Z,0.00
2019-03-11T00:54:03.754Z,0.00
2019-03-11T00:55:03.819Z,0.00
2019-03-11T00:56:03.766Z,0.00
2019-03-11T00:57:03.774Z,0.00
2019-03-11T00:58:03.802Z,0.00
2019-03-11T00:59:03.789Z,0.00
2019-03-11T01:00:03.791Z,0.00
2019-03-11T01:01:03.789Z,0.00
2019-03-11T01:02:03.792Z,0.00
2019-03-11T01:03:03.811Z,0.00
2019-03-11T01:04:03.809Z,0.00
2019-03-11T01:05:03.839Z,0.00
2019-03-11T01:06:03.795Z,0.00
2019-03-11T01:07:03.819Z,0.00
2019-03-11T01:08:03.816Z,0.00
2019-03-11T01:09:03.819Z,0.00
2019-03-11T01:10:03.834Z,0.00
2019-03-11T01:11:03.862Z,0.00
2019-03-11T01:12:03.846Z,0.00
2019-03-11T01:13:03.814Z,0.00
2019-03-11T01:14:03.831Z,0.00
2019-03-11T01:15:03.845Z,0.00
2019-03-11T01:16:03.840Z,0.00
2019-03-11T01:17:03.855Z,0.00
2019-03-11T01:18:03.879Z,0.00
2019-03-11T01:19:03.922Z,0.00
2019-03-11T01:20:03.842Z,0.00
2019-03-11T01:21:03.883Z,0.00
2019-03-11T01:22:03.842Z,0.00
2019-03-11T01:23:03.851Z,0.00
2019-03-11T01:24:03.855Z,0.00
2019-03-11T01:25:04.984Z,0.00
2019-03-11T01:26:03.909Z,0.00
2019-03-11T01:27:03.871Z,0.00
2019-03-11T01:28:03.877Z,0.00
2019-03-11T01:29:03.860Z,0.00
2019-03-11T01:30:03.885Z,0.00
2019-03-11T01:31:03.906Z,0.00
2019-03-11T01:32:03.874Z,0.00
2019-03-11T01:33:03.910Z,0.00
2019-03-11T01:34:03.891Z,0.00
2019-03-11T01:35:03.924Z,0.00
2019-03-11T01:36:03.888Z,0.00
2019-03-11T01:37:03.938Z,0.00
2019-03-11T01:38:03.891Z,0.00
2019-03-11T01:39:03.903Z,0.00
2019-03-11T01:40:03.921Z,0.00
2019-03-11T01:41:03.964Z,0.00
2019-03-11T01:42:03.913Z,0.00
2019-03-11T01:43:03.923Z,0.00
2019-03-11T01:44:03.933Z,0.00
2019-03-11T01:45:03.933Z,0.00
2019-03-11T01:46:03.932Z,0.00
2019-03-11T01:47:03.947Z,0.00
2019-03-11T01:48:03.940Z,0.00
2019-03-11T01:49:03.924Z,0.00
2019-03-11T01:50:03.930Z,0.00
2019-03-11T01:51:03.929Z,0.00
2019-03-11T01:52:03.956Z,0.00
2019-03-11T01:53:03.941Z,0.00
2019-03-11T01:54:03.972Z,0.00
2019-03-11T01:55:03.969Z,0.00
2019-03-11T01:56:04.010Z,0.00
2019-03-11T01:57:03.983Z,0.00
2019-03-11T01:58:03.981Z,0.00
2019-03-11T01:59:04.091Z,0.00
2019-03-11T02:00:03.952Z,0.00
2019-03-11T02:01:03.983Z,0.00
2019-03-11T02:02:04.002Z,0.00
2019-03-11T02:03:03.987Z,0.00
2019-03-11T02:04:03.979Z,0.00
2019-03-11T02:05:03.983Z,0.00
2019-03-11T02:06:04.020Z,0.00
2019-03-11T02:07:03.988Z,0.00
2019-03-11T02:08:03.999Z,0.00
2019-03-11T02:09:03.993Z,0.00
2019-03-11T02:10:04.007Z,0.00
2019-03-11T02:11:04.218Z,0.00
2019-03-11T02:12:04.001Z,0.00
2019-03-11T02:13:04.005Z,0.00
2019-03-11T02:14:04.004Z,0.00
2019-03-11T02:15:04.039Z,0.00
2019-03-11T02:16:04.043Z,0.00
2019-03-11T02:17:04.023Z,0.00
2019-03-11T02:18:04.014Z,0.00
2019-03-11T02:19:04.015Z,0.00
2019-03-11T02:20:04.018Z,0.00
2019-03-11T02:21:04.077Z,0.00
2019-03-11T02:22:04.083Z,0.00
2019-03-11T02:23:04.041Z,0.00
2019-03-11T02:24:04.025Z,0.00
2019-03-11T02:25:04.035Z,0.00
2019-03-11T02:26:04.163Z,0.00
2019-03-11T02:27:04.150Z,0.00
2019-03-11T02:28:04.360Z,0.00
2019-03-11T02:29:04.065Z,0.00
2019-03-11T02:30:04.065Z,0.00
2019-03-11T02:31:04.061Z,0.00
2019-03-11T02:32:04.054Z,0.00
2019-03-11T02:33:04.140Z,0.00
2019-03-11T02:34:04.062Z,0.00
2019-03-11T02:35:04.068Z,0.00
2019-03-11T02:36:04.094Z,0.00
2019-03-11T02:37:04.114Z,0.00
2019-03-11T02:38:04.087Z,0.00
2019-03-11T02:39:04.115Z,0.00
2019-03-11T02:40:04.090Z,0.00
2019-03-11T02:41:04.092Z,0.00
2019-03-11T02:42:04.098Z,0.00
2019-03-11T02:43:04.112Z,0.00
2019-03-11T02:44:04.173Z,0.00
2019-03-11T02:45:04.140Z,0.00
2019-03-11T02:46:04.107Z,0.00
2019-03-11T02:47:04.166Z,0.00
2019-03-11T02:48:04.171Z,0.00
2019-03-11T02:49:04.167Z,0.00
2019-03-11T02:50:04.124Z,0.00
2019-03-11T02:51:04.132Z,0.00
2019-03-11T02:52:04.176Z,0.00
2019-03-11T02:53:04.136Z,0.00
2019-03-11T02:54:04.151Z,0.00
2019-03-11T02:55:04.176Z,0.00
2019-03-11T02:56:04.137Z,0.00
2019-03-11T02:57:04.153Z,0.00
2019-03-11T02:58:04.139Z,0.00
2019-03-11T02:59:04.195Z,0.00
2019-03-11T03:00:04.169Z,0.00
2019-03-11T03:01:04.256Z,0.00
2019-03-11T03:02:04.161Z,0.00
2019-03-11T03:03:04.179Z,0.00
2019-03-11T03:04:04.526Z,0.00
2019-03-11T03:05:04.163Z,0.00
2019-03-11T03:06:04.238Z,0.00
2019-03-11T03:07:04.226Z,0.00
2019-03-11T03:08:04.217Z,0.00
2019-03-11T03:09:04.181Z,0.00
2019-03-11T03:10:04.182Z,0.00
2019-03-11T03:11:04.218Z,0.00
2019-03-11T03:12:04.224Z,0.00
2019-03-11T03:13:04.236Z,0.00
2019-03-11T03:14:04.200Z,0.00
2019-03-11T03:15:04.197Z,0.00
2019-03-11T03:16:04.246Z,0.00
2019-03-11T03:17:04.207Z,0.00
2019-03-11T03:18:04.275Z,0.00
2019-03-11T03:19:04.226Z,0.00
2019-03-11T03:20:04.221Z,0.00
2019-03-11T03:21:04.228Z,0.00
2019-03-11T03:22:04.239Z,0.00
2019-03-11T03:23:04.268Z,0.00
2019-03-11T03:24:04.222Z,0.00
2019-03-11T03:25:04.259Z,0.00
2019-03-11T03:26:04.265Z,0.00
2019-03-11T03:27:04.286Z,0.00
2019-03-11T03:28:04.298Z,0.00
2019-03-11T03:29:04.286Z,0.00
2019-03-11T03:30:04.248Z,0.00
2019-03-11T03:31:04.303Z,0.00
2019-03-11T03:32:04.266Z,0.00
2019-03-11T03:33:04.256Z,0.00
2019-03-11T03:34:04.308Z,0.00
2019-03-11T03:35:04.257Z,0.00
2019-03-11T03:36:04.299Z,0.00
2019-03-11T03:37:04.275Z,0.00
2019-03-11T03:38:04.383Z,0.00
2019-03-11T03:39:04.290Z,0.00
2019-03-11T03:40:04.274Z,0.00
2019-03-11T03:41:04.290Z,0.00
2019-03-11T03:42:04.309Z,0.00
2019-03-11T03:43:04.430Z,0.00
2019-03-11T03:44:04.284Z,0.00
2019-03-11T03:45:04.296Z,0.00
2019-03-11T03:46:18.053Z,0.00
2019-03-11T03:47:04.308Z,0.00
2019-03-11T03:48:04.421Z,0.00
2019-03-11T03:49:04.366Z,0.00
2019-03-11T03:50:04.345Z,0.00
2019-03-11T03:51:04.311Z,0.00
2019-03-11T03:52:04.310Z,0.00
2019-03-11T03:53:04.339Z,0.00
2019-03-11T03:54:04.336Z,0.00
2019-03-11T03:55:04.381Z,0.00
2019-03-11T03:56:04.369Z,0.00
2019-03-11T03:57:04.370Z,0.00
2019-03-11T03:58:04.364Z,0.00
2019-03-11T03:59:04.359Z,0.00
2019-03-11T04:00:04.371Z,0.00
2019-03-11T04:01:04.412Z,0.00
2019-03-11T04:02:04.351Z,0.00
2019-03-11T04:03:04.377Z,0.00
2019-03-11T04:04:04.690Z,0.00
2019-03-11T04:05:04.368Z,0.00
2019-03-11T04:06:04.360Z,0.00
2019-03-11T04:07:04.403Z,0.00
2019-03-11T04:08:04.379Z,0.00
2019-03-11T04:09:04.370Z,0.00
2019-03-11T04:10:04.380Z,0.00
2019-03-11T04:11:04.446Z,0.00
2019-03-11T04:12:04.392Z,0.00
2019-03-11T04:13:04.390Z,0.00
2019-03-11T04:14:04.386Z,0.00
2019-03-11T04:15:04.418Z,0.00
2019-03-11T04:16:04.421Z,0.00
2019-03-11T04:17:04.410Z,0.00
2019-03-11T04:18:04.418Z,0.00
2019-03-11T04:19:04.424Z,0.00
2019-03-11T04:20:04.400Z,0.00
2019-03-11T04:21:04.410Z,0.00
2019-03-11T04:22:04.526Z,0.00
2019-03-11T04:23:04.405Z,0.00
2019-03-11T04:24:04.414Z,0.00
2019-03-11T04:25:04.437Z,0.00
2019-03-11T04:26:04.469Z,0.00
2019-03-11T04:27:04.440Z,0.00
2019-03-11T04:28:04.485Z,0.00
2019-03-11T04:29:04.439Z,0.00
2019-03-11T04:30:04.442Z,0.00
2019-03-11T04:31:04.463Z,0.00
2019-03-11T04:32:04.464Z,0.00
2019-03-11T04:33:04.474Z,0.00
2019-03-11T04:34:08.617Z,0.00
2019-03-11T04:35:04.460Z,0.00
2019-03-11T04:36:04.459Z,0.00
2019-03-11T04:37:04.457Z,0.00
2019-03-11T04:38:04.495Z,0.00
2019-03-11T04:39:04.475Z,0.00
2019-03-11T04:40:04.494Z,0.00
2019-03-11T04:41:04.475Z,0.00
2019-03-11T04:42:04.475Z,0.00
2019-03-11T04:43:04.559Z,0.00
2019-03-11T04:44:06.627Z,0.00
2019-03-11T04:45:04.505Z,0.00
2019-03-11T04:46:04.505Z,0.00
2019-03-11T04:47:04.501Z,0.00
2019-03-11T04:48:04.499Z,0.00
2019-03-11T04:49:04.531Z,0.00
2019-03-11T04:50:04.490Z,0.00
2019-03-11T04:51:04.565Z,0.00
2019-03-11T04:52:04.601Z,0.00
2019-03-11T04:53:04.551Z,0.00
2019-03-11T04:54:04.558Z,0.00
2019-03-11T04:55:04.519Z,0.00
2019-03-11T04:56:04.547Z,0.00
2019-03-11T04:57:04.534Z,0.00
2019-03-11T04:58:04.567Z,0.00
2019-03-11T04:59:04.536Z,0.00
2019-03-11T05:00:04.623Z,0.00
2019-03-11T05:01:04.530Z,0.00
2019-03-11T05:02:04.541Z,0.00
2019-03-11T05:03:04.550Z,0.00
2019-03-11T05:04:04.553Z,4.00
2019-03-11T05:05:04.557Z,4.00
2019-03-11T05:06:04.622Z,0.00
2019-03-11T05:07:04.599Z,4.00
2019-03-11T05:08:04.578Z,4.00
2019-03-11T05:09:04.566Z,4.00
2019-03-11T05:10:04.576Z,4.00
2019-03-11T05:11:04.658Z,4.00
2019-03-11T05:12:04.592Z,8.00
2019-03-11T05:13:04.583Z,12.00
2019-03-11T05:14:04.606Z,8.00
2019-03-11T05:15:04.593Z,8.00
2019-03-11T05:16:04.588Z,12.00
2019-03-11T05:17:04.637Z,16.00
2019-03-11T05:18:04.623Z,16.00
2019-03-11T05:19:04.604Z,12.00
2019-03-11T05:20:04.597Z,16.00
2019-03-11T05:21:04.658Z,24.00
2019-03-11T05:22:04.631Z,24.00
2019-03-11T05:23:04.599Z,24.00
2019-03-11T05:24:04.609Z,28.00
2019-03-11T05:25:04.610Z,24.00
2019-03-11T05:26:04.655Z,24.00
2019-03-11T05:27:04.618Z,36.00
2019-03-11T05:28:04.641Z,40.00
2019-03-11T05:29:04.646Z,44.00
2019-03-11T05:30:04.619Z,52.00
2019-03-11T05:31:04.621Z,68.00
2019-03-11T05:32:04.686Z,72.00
2019-03-11T05:33:04.650Z,84.00
2019-03-11T05:34:04.650Z,88.00
2019-03-11T05:35:04.656Z,96.00
2019-03-11T05:36:04.667Z,108.00
2019-03-11T05:37:04.668Z,116.00
2019-03-11T05:38:04.681Z,136.00
2019-03-11T05:39:04.657Z,128.00
2019-03-11T05:40:04.659Z,136.00
2019-03-11T05:41:04.656Z,152.00
2019-03-11T05:42:04.685Z,180.00
2019-03-11T05:43:04.727Z,176.00
2019-03-11T05:44:04.676Z,180.00
2019-03-11T05:45:04.674Z,192.00
2019-03-11T05:46:04.673Z,188.00
2019-03-11T05:47:04.681Z,176.00
2019-03-11T05:48:04.734Z,184.00
2019-03-11T05:49:04.693Z,224.00
2019-03-11T05:50:04.681Z,236.00
2019-03-11T05:51:04.718Z,228.00
2019-03-11T05:52:04.688Z,276.00
2019-03-11T05:53:04.747Z,312.00
2019-03-11T05:54:04.700Z,340.00
2019-03-11T05:55:04.707Z,336.00
2019-03-11T05:56:04.710Z,320.00
2019-03-11T05:57:04.711Z,360.00
2019-03-11T05:58:04.765Z,436.00
2019-03-11T05:59:04.722Z,432.00
2019-03-11T06:00:04.722Z,396.00
2019-03-11T06:01:04.724Z,332.00
2019-03-11T06:02:04.731Z,308.00
2019-03-11T06:03:04.741Z,280.00
2019-03-11T06:04:04.779Z,328.00
2019-03-11T06:05:04.741Z,368.00
2019-03-11T06:06:04.759Z,316.00
2019-03-11T06:07:04.785Z,356.00
2019-03-11T06:08:04.774Z,468.00
2019-03-11T06:09:04.799Z,540.00
2019-03-11T06:10:04.750Z,588.00
2019-03-11T06:11:04.772Z,676.00
2019-03-11T06:12:04.753Z,808.00
2019-03-11T06:13:04.768Z,932.00
2019-03-11T06:14:04.767Z,1016.00
2019-03-11T06:15:04.824Z,1152.00
2019-03-11T06:16:04.779Z,1192.00
2019-03-11T06:17:04.774Z,1340.00
2019-03-11T06:18:04.784Z,1552.00
2019-03-11T06:19:04.781Z,1720.00
2019-03-11T06:20:04.824Z,1908.00
2019-03-11T06:21:04.821Z,2056.00
2019-03-11T06:22:04.798Z,2244.00
2019-03-11T06:23:04.805Z,2432.00
2019-03-11T06:24:04.802Z,2600.00
2019-03-11T06:25:04.859Z,2776.00
2019-03-11T06:26:04.841Z,2880.00
2019-03-11T06:27:04.818Z,2864.00
2019-03-11T06:28:04.841Z,2916.00
2019-03-11T06:29:04.824Z,2968.00
2019-03-11T06:30:04.812Z,2976.00
2019-03-11T06:31:04.841Z,3052.00
2019-03-11T06:32:04.888Z,3008.00
2019-03-11T06:33:04.839Z,2888.00
2019-03-11T06:34:04.850Z,2608.00
2019-03-11T06:35:04.832Z,2640.00
2019-03-11T06:36:04.892Z,2704.00
2019-03-11T06:37:04.884Z,2792.00
2019-03-11T06:38:04.864Z,2900.00
2019-03-11T06:39:06.157Z,2868.00
2019-03-11T06:40:04.858Z,2940.00
2019-03-11T06:41:04.904Z,3032.00
2019-03-11T06:42:04.885Z,3076.00
2019-03-11T06:43:04.903Z,3156.00
2019-03-11T06:44:04.879Z,3180.00
2019-03-11T06:45:04.876Z,3184.00
2019-03-11T06:46:04.963Z,3184.00
2019-03-11T06:47:04.904Z,3188.00
2019-03-11T06:48:04.887Z,3260.00
2019-03-11T06:49:04.890Z,3408.00
2019-03-11T06:50:04.930Z,3612.00
2019-03-11T06:51:04.925Z,3808.00
2019-03-11T06:52:04.913Z,4004.00
2019-03-11T06:53:04.890Z,4192.00
2019-03-11T06:54:04.943Z,4304.00
2019-03-11T06:55:04.901Z,4336.00
2019-03-11T06:56:04.930Z,4464.00
2019-03-11T06:57:04.948Z,4512.00
2019-03-11T06:58:04.953Z,4460.00
2019-03-11T06:59:04.920Z,4292.00
2019-03-11T07:00:04.920Z,4376.00
2019-03-11T07:01:04.933Z,4580.00
2019-03-11T07:02:04.978Z,4612.00
2019-03-11T07:03:04.949Z,4728.00
2019-03-11T07:04:04.936Z,4856.00
2019-03-11T07:05:04.965Z,4740.00
2019-03-11T07:06:04.964Z,4784.00
2019-03-11T07:07:04.980Z,4720.00
2019-03-11T07:08:04.965Z,4736.00
2019-03-11T07:09:04.991Z,4796.00
2019-03-11T07:10:04.970Z,4764.00
2019-03-11T07:11:05.006Z,4728.00
2019-03-11T07:12:05.062Z,4824.00
2019-03-11T07:13:04.977Z,4728.00
2019-03-11T07:14:04.988Z,4040.00
2019-03-11T07:15:05.029Z,3556.00
2019-03-11T07:16:04.987Z,3784.00
2019-03-11T07:17:05.053Z,3964.00
2019-03-11T07:18:04.987Z,3752.00
2019-03-11T07:19:05.002Z,3580.00
2019-03-11T07:20:05.040Z,3564.00
2019-03-11T07:21:05.012Z,3620.00
2019-03-11T07:22:05.021Z,3336.00
2019-03-11T07:23:05.019Z,2624.00
2019-03-11T07:24:05.036Z,2292.00
2019-03-11T07:25:05.056Z,2296.00
2019-03-11T07:26:05.064Z,2540.00
2019-03-11T07:27:05.038Z,2268.00
2019-03-11T07:28:05.033Z,2460.00
2019-03-11T07:29:05.039Z,3524.00
2019-03-11T07:30:05.075Z,4064.00
2019-03-11T07:31:05.076Z,4348.00
2019-03-11T07:32:05.049Z,4724.00
2019-03-11T07:33:07.064Z,4944.00
2019-03-11T07:34:05.049Z,6020.00
2019-03-11T07:35:08.708Z,6200.00
2019-03-11T07:36:05.098Z,6796.00
2019-03-11T07:37:05.094Z,5216.00
2019-03-11T07:38:05.091Z,4352.00
2019-03-11T07:39:05.089Z,4644.00
2019-03-11T07:40:05.088Z,4004.00
2019-03-11T07:41:05.117Z,4684.00
2019-03-11T07:42:05.099Z,5492.00
2019-03-11T07:43:05.136Z,5464.00
2019-03-11T07:44:05.085Z,5848.00
2019-03-11T07:45:05.270Z,6800.00
2019-03-11T07:46:05.179Z,6064.00
2019-03-11T07:47:05.113Z,5104.00
2019-03-11T07:48:05.118Z,4164.00
2019-03-11T07:49:05.115Z,4548.00
2019-03-11T07:50:05.123Z,4040.00
2019-03-11T07:51:05.166Z,3500.00
2019-03-11T07:52:05.170Z,3828.00
2019-03-11T07:53:05.133Z,4412.00
2019-03-11T07:54:05.132Z,4844.00
2019-03-11T07:55:05.135Z,4440.00
2019-03-11T07:56:05.194Z,3912.00
2019-03-11T07:57:05.153Z,4080.00
2019-03-11T07:58:05.162Z,5076.00
2019-03-11T07:59:05.181Z,5640.00
2019-03-11T08:00:05.154Z,5772.00
2019-03-11T08:01:05.193Z,5080.00
2019-03-11T08:02:05.223Z,6092.00
2019-03-11T08:03:05.204Z,5588.00
2019-03-11T08:04:05.196Z,5608.00
2019-03-11T08:05:05.175Z,5460.00
2019-03-11T08:06:05.209Z,6228.00
2019-03-11T08:07:05.238Z,6692.00
2019-03-11T08:08:05.247Z,5704.00
2019-03-11T08:09:05.197Z,5984.00
2019-03-11T08:10:05.231Z,4504.00
2019-03-11T08:11:05.208Z,4736.00
2019-03-11T08:12:05.276Z,5468.00
2019-03-11T08:13:07.783Z,4948.00
2019-03-11T08:14:05.216Z,4204.00
2019-03-11T08:15:05.241Z,3292.00
2019-03-11T08:16:05.222Z,3556.00
2019-03-11T08:17:05.261Z,4488.00
2019-03-11T08:18:05.314Z,4444.00
2019-03-11T08:19:05.244Z,4080.00
2019-03-11T08:20:05.258Z,4436.00
2019-03-11T08:21:05.255Z,3580.00
2019-03-11T08:22:05.265Z,3312.00
2019-03-11T08:23:05.266Z,3040.00
2019-03-11T08:24:05.307Z,3548.00
2019-03-11T08:25:05.278Z,3532.00
2019-03-11T08:26:05.301Z,3488.00
2019-03-11T08:27:05.281Z,4504.00
2019-03-11T08:28:05.291Z,6100.00
2019-03-11T08:29:05.358Z,7100.00
2019-03-11T08:30:05.327Z,6656.00
2019-03-11T08:31:05.305Z,7320.00
2019-03-11T08:32:05.301Z,6708.00
2019-03-11T08:33:05.292Z,6084.00
2019-03-11T08:34:05.349Z,5808.00
2019-03-11T08:35:06.243Z,6332.00
2019-03-11T08:36:05.310Z,7476.00
2019-03-11T08:37:05.321Z,8604.00
2019-03-11T08:38:05.546Z,6828.00
2019-03-11T08:39:05.325Z,6356.00
2019-03-11T08:40:05.387Z,6092.00
2019-03-11T08:41:05.341Z,4936.00
2019-03-11T08:42:05.347Z,4748.00
2019-03-11T08:43:05.353Z,4408.00
2019-03-11T08:44:05.362Z,4464.00
2019-03-11T08:45:05.375Z,4384.00
2019-03-11T08:46:05.384Z,4580.00
2019-03-11T08:47:05.421Z,5412.00
2019-03-11T08:48:05.368Z,5696.00
2019-03-11T08:49:05.373Z,5952.00
2019-03-11T08:50:05.431Z,6552.00
2019-03-11T08:51:05.415Z,5492.00
2019-03-11T08:52:05.632Z,6908.00
2019-03-11T08:53:05.393Z,6152.00
2019-03-11T08:54:05.385Z,4848.00
2019-03-11T08:55:05.393Z,5008.00
2019-03-11T08:56:05.451Z,3820.00
2019-03-11T08:57:05.397Z,3228.00
2019-03-11T08:58:05.407Z,2560.00
2019-03-11T08:59:05.436Z,2956.00
2019-03-11T09:00:05.475Z,3896.00
2019-03-11T09:01:05.429Z,5104.00
2019-03-11T09:02:05.459Z,5260.00
2019-03-11T09:03:05.475Z,4460.00
2019-03-11T09:04:05.454Z,4160.00
2019-03-11T09:05:05.504Z,4436.00
2019-03-11T09:06:05.492Z,4308.00
2019-03-11T09:07:05.467Z,4708.00
2019-03-11T09:08:05.443Z,5424.00
2019-03-11T09:09:05.666Z,5528.00
2019-03-11T09:10:05.491Z,4744.00
2019-03-11T09:11:05.615Z,3756.00
2019-03-11T09:12:05.511Z,3024.00
2019-03-11T09:13:05.479Z,2760.00
2019-03-11T09:14:05.494Z,2732.00
2019-03-11T09:15:05.499Z,3304.00
2019-03-11T09:16:05.525Z,3692.00
2019-03-11T09:17:05.506Z,3720.00
2019-03-11T09:18:05.502Z,3288.00
2019-03-11T09:19:05.529Z,3480.00
2019-03-11T09:20:05.509Z,3936.00
2019-03-11T09:21:05.725Z,3760.00
2019-03-11T09:22:05.527Z,3356.00
2019-03-11T09:23:05.526Z,2892.00
2019-03-11T09:24:05.552Z,2968.00
2019-03-11T09:25:05.568Z,2972.00
2019-03-11T09:26:05.556Z,3336.00
2019-03-11T09:27:05.584Z,4608.00
2019-03-11T09:28:05.617Z,4160.00
2019-03-11T09:29:05.553Z,4008.00
2019-03-11T09:30:05.554Z,4816.00
2019-03-11T09:31:05.597Z,5424.00
2019-03-11T09:32:05.555Z,6576.00
2019-03-11T09:33:08.237Z,6076.00
2019-03-11T09:34:05.564Z,5984.00
2019-03-11T09:35:05.576Z,4144.00
2019-03-11T09:36:05.572Z,3744.00
2019-03-11T09:37:05.585Z,3540.00
2019-03-11T09:38:05.594Z,4252.00
2019-03-11T09:39:05.629Z,4712.00
2019-03-11T09:40:05.633Z,6456.00
2019-03-11T09:41:05.615Z,8212.00
2019-03-11T09:42:05.599Z,9344.00
2019-03-11T09:43:05.611Z,9744.00
2019-03-11T09:44:05.601Z,10576.00
2019-03-11T09:45:05.623Z,10856.00
2019-03-11T09:46:05.704Z,10212.00
2019-03-11T09:47:05.624Z,11000.00
2019-03-11T09:48:05.617Z,11356.00
2019-03-11T09:49:05.628Z,11604.00
2019-03-11T09:50:05.630Z,11684.00
2019-03-11T09:51:05.633Z,11712.00
2019-03-11T09:52:05.682Z,11028.00
2019-03-11T09:53:05.642Z,12552.00
2019-03-11T09:54:05.660Z,14432.00
2019-03-11T09:55:05.660Z,14200.00
2019-03-11T09:56:05.737Z,14564.00
2019-03-11T09:57:05.671Z,15776.00
2019-03-11T09:58:05.721Z,16988.00
2019-03-11T09:59:05.748Z,18048.00
2019-03-11T10:00:05.684Z,18048.00
2019-03-11T10:01:05.688Z,17920.00
2019-03-11T10:02:05.800Z,16452.00
2019-03-11T10:03:05.696Z,15252.00
2019-03-11T10:04:05.704Z,12344.00
2019-03-11T10:05:05.728Z,9168.00
2019-03-11T10:06:05.737Z,10716.00
2019-03-11T10:07:05.719Z,12100.00
2019-03-11T10:08:05.758Z,10440.00
2019-03-11T10:09:05.786Z,9420.00
2019-03-11T10:10:05.754Z,8556.00
2019-03-11T10:11:05.886Z,8684.00
2019-03-11T10:12:05.750Z,9312.00
2019-03-11T10:13:05.771Z,7092.00
2019-03-11T10:14:05.792Z,7264.00
2019-03-11T10:15:05.780Z,6348.00
2019-03-11T10:16:05.775Z,7472.00
2019-03-11T10:17:05.798Z,11020.00
2019-03-11T10:18:05.807Z,11728.00
2019-03-11T10:19:05.771Z,10584.00
2019-03-11T10:20:05.792Z,9844.00
2019-03-11T10:21:05.825Z,8468.00
2019-03-11T10:22:05.809Z,8940.00
2019-03-11T10:23:05.791Z,7896.00
2019-03-11T10:24:05.871Z,7228.00
2019-03-11T10:25:05.844Z,5928.00
2019-03-11T10:26:05.825Z,7556.00
2019-03-11T10:27:05.818Z,8044.00
2019-03-11T10:28:05.831Z,7564.00
2019-03-11T10:29:05.826Z,6936.00
2019-03-11T10:30:06.028Z,7400.00
2019-03-11T10:31:05.854Z,7448.00
2019-03-11T10:32:05.849Z,6952.00
2019-03-11T10:33:05.861Z,6396.00
2019-03-11T10:34:05.869Z,7008.00
2019-03-11T10:35:05.921Z,6188.00
2019-03-11T10:36:05.866Z,7272.00
2019-03-11T10:37:05.879Z,8492.00
2019-03-11T10:38:05.890Z,8676.00
2019-03-11T10:39:05.890Z,8968.00
2019-03-11T10:40:05.977Z,9940.00
2019-03-11T10:41:05.903Z,10912.00
2019-03-11T10:42:05.927Z,11888.00
2019-03-11T10:43:05.906Z,12464.00
2019-03-11T10:44:05.925Z,13288.00
2019-03-11T10:45:05.931Z,13600.00
2019-03-11T10:46:05.948Z,13312.00
2019-03-11T10:47:05.927Z,12520.00
2019-03-11T10:48:05.939Z,12088.00
2019-03-11T10:49:05.961Z,11524.00
2019-03-11T10:50:05.949Z,11696.00
2019-03-11T10:51:05.990Z,12328.00
2019-03-11T10:52:07.358Z,12584.00
2019-03-11T10:53:05.961Z,12864.00
2019-03-11T10:54:05.960Z,13208.00
2019-03-11T10:55:05.964Z,12568.00
2019-03-11T10:56:06.066Z,11908.00
2019-03-11T10:57:05.982Z,14700.00
2019-03-11T10:58:05.980Z,15132.00
2019-03-11T10:59:06.017Z,14044.00
2019-03-11T11:00:05.991Z,13424.00
2019-03-11T11:01:06.006Z,13120.00
2019-03-11T11:02:06.045Z,12972.00
2019-03-11T11:03:06.045Z,12008.00
2019-03-11T11:04:06.024Z,11108.00
2019-03-11T11:05:06.029Z,10348.00
2019-03-11T11:06:06.048Z,9764.00
2019-03-11T11:07:06.093Z,8420.00
2019-03-11T11:08:06.050Z,5624.00
2019-03-11T11:09:06.062Z,4772.00
2019-03-11T11:10:06.062Z,4440.00
2019-03-11T11:11:06.067Z,4836.00
2019-03-11T11:12:06.095Z,5160.00
2019-03-11T11:13:06.074Z,5032.00
2019-03-11T11:14:06.182Z,4720.00
2019-03-11T11:15:06.091Z,4848.00
2019-03-11T11:16:06.091Z,4576.00
2019-03-11T11:17:06.111Z,4992.00
2019-03-11T11:18:06.132Z,4556.00
2019-03-11T11:19:06.100Z,4440.00
2019-03-11T11:20:06.099Z,4628.00
2019-03-11T11:21:06.123Z,5424.00
2019-03-11T11:22:06.128Z,5796.00
2019-03-11T11:23:06.183Z,5552.00
2019-03-11T11:24:06.178Z,6356.00
2019-03-11T11:25:06.150Z,6448.00
2019-03-11T11:26:06.145Z,6392.00
2019-03-11T11:27:06.153Z,5596.00
2019-03-11T11:28:06.177Z,5028.00
2019-03-11T11:29:06.217Z,6200.00
2019-03-11T11:30:06.149Z,6144.00
2019-03-11T11:31:06.161Z,5896.00
2019-03-11T11:32:06.170Z,5652.00
2019-03-11T11:33:06.203Z,5272.00
2019-03-11T11:34:06.170Z,4164.00
2019-03-11T11:35:06.230Z,3644.00
2019-03-11T11:36:06.198Z,3460.00
2019-03-11T11:37:06.202Z,3688.00
2019-03-11T11:38:06.189Z,4424.00
2019-03-11T11:39:06.207Z,3700.00
2019-03-11T11:40:06.248Z,3856.00
2019-03-11T11:41:06.216Z,3664.00
2019-03-11T11:42:06.279Z,3500.00
2019-03-11T11:43:06.215Z,3076.00
2019-03-11T11:44:06.257Z,3500.00
2019-03-11T11:45:06.302Z,3788.00
2019-03-11T11:46:06.236Z,3596.00
2019-03-11T11:47:06.238Z,3716.00
2019-03-11T11:48:08.216Z,3908.00
2019-03-11T11:49:06.287Z,3300.00
2019-03-11T11:50:06.256Z,2668.00
2019-03-11T11:51:06.286Z,3372.00
2019-03-11T11:52:06.282Z,4204.00
2019-03-11T11:53:06.287Z,4716.00
2019-03-11T11:54:06.320Z,3888.00
2019-03-11T11:55:06.297Z,4176.00
2019-03-11T11:56:06.321Z,4940.00
2019-03-11T11:57:06.287Z,5268.00
2019-03-11T11:58:06.300Z,5240.00
2019-03-11T11:59:06.301Z,5068.00
2019-03-11T12:00:06.297Z,4976.00
2019-03-11T12:01:06.314Z,5404.00
2019-03-11T12:02:06.389Z,6024.00
2019-03-11T12:03:06.338Z,6604.00
2019-03-11T12:04:06.355Z,6408.00
2019-03-11T12:05:06.330Z,6360.00
2019-03-11T12:06:06.337Z,5320.00
2019-03-11T12:07:06.327Z,5324.00
2019-03-11T12:08:06.374Z,5940.00
2019-03-11T12:09:06.413Z,5484.00
2019-03-11T12:10:06.357Z,6456.00
2019-03-11T12:11:06.353Z,6840.00
2019-03-11T12:12:06.426Z,7172.00
2019-03-11T12:13:06.477Z,6760.00
2019-03-11T12:14:06.384Z,7644.00
2019-03-11T12:15:06.362Z,6924.00
2019-03-11T12:16:06.362Z,6988.00
2019-03-11T12:17:06.376Z,7144.00
2019-03-11T12:18:06.411Z,7152.00
2019-03-11T12:19:06.391Z,7504.00
2019-03-11T12:20:06.377Z,7812.00
2019-03-11T12:21:06.409Z,7512.00
2019-03-11T12:22:06.383Z,6912.00
2019-03-11T12:23:06.449Z,7996.00
2019-03-11T12:24:06.414Z,8116.00
2019-03-11T12:25:06.408Z,7224.00
2019-03-11T12:26:06.409Z,6156.00
2019-03-11T12:27:06.412Z,5552.00
2019-03-11T12:28:06.421Z,5952.00
2019-03-11T12:29:06.491Z,5464.00
2019-03-11T12:30:06.433Z,6068.00
2019-03-11T12:31:06.452Z,6224.00
2019-03-11T12:32:06.442Z,5848.00
2019-03-11T12:33:06.502Z,6428.00
2019-03-11T12:34:06.459Z,6844.00
2019-03-11T12:35:06.473Z,7208.00